Cullasaja, North Carolina
Current Conditions -  °F | °C
As of 9:35 AM on Friday 24 Oct 2014 (Local Time) from KRHP Reporting Station
Clear Clear  
Wind Chill: 41°   Ceiling: Unl
Heat Index: 43°   Visibility: 10mi
Dew Point: 42°   Wind: 5mph
Humidity: 94%   Direction: 70°ENE
Pressure: 30.11"   Gusts: NA
Location:  35.1737°N, 83.4215°W
Report Text: KRHP 241335Z AUTO 07004KT 10SM CLR 06/05 A3011 RMK AO2 T00630054
Loading
Personal Weather Stations






























Interactive Weather Map
Tropical Storm Tracking
New forecast layout! Learn more

10-Day Weather Forecast

Advertisements
Track Severe Weather on mobile